Time;durP1;ratioP1;P1;durP2;ratioP2;P2;SDS_P1;SDS_P2;PMS_P1;PMS_P2;Temp;Humidity;BMP_temperature;BMP_pressure;BME280_temperature;BME280_humidity;BME280_pressure;Samples;Min_cycle;Max_cycle;Signal;HPM_P1;HPM_P2
2023/12/09 00:01:50;;;;;;;27.27;15.10;;;14.30;62.30;;;;;;5061133;28;20437;-82
2023/12/09 00:04:18;;;;;;;28.70;14.67;;;14.30;62.20;;;;;;5050068;28;20442;-84
2023/12/09 00:06:49;;;;;;;32.17;15.33;;;14.30;62.20;;;;;;5057473;28;20444;-81
2023/12/09 00:09:18;;;;;;;28.03;15.50;;;14.30;62.20;;;;;;5054988;28;20455;-80
2023/12/09 00:11:47;;;;;;;28.57;14.87;;;14.30;62.40;;;;;;5048155;28;20440;-80
2023/12/09 00:14:16;;;;;;;29.77;15.70;;;14.30;62.30;;;;;;5070317;28;20518;-83
2023/12/09 00:16:44;;;;;;;31.63;15.70;;;14.30;62.30;;;;;;5072318;22;20543;-77
2023/12/09 00:19:13;;;;;;;28.03;15.10;;;14.40;62.50;;;;;;5070740;28;20449;-77
2023/12/09 00:21:41;;;;;;;31.67;15.97;;;14.40;62.40;;;;;;5087251;28;20440;-77
2023/12/09 00:24:09;;;;;;;27.40;15.70;;;14.30;62.20;;;;;;5078183;28;20445;-76
2023/12/09 00:26:38;;;;;;;28.50;15.63;;;14.30;62.20;;;;;;5046824;28;20461;-78
2023/12/09 00:29:07;;;;;;;27.17;14.50;;;14.40;62.30;;;;;;5052395;28;20466;-78
2023/12/09 00:31:35;;;;;;;29.63;15.03;;;14.40;62.40;;;;;;5043701;28;20439;-77
2023/12/09 00:34:03;;;;;;;28.53;15.33;;;14.40;62.40;;;;;;5037991;28;20498;-77
2023/12/09 00:36:31;;;;;;;29.70;15.60;;;14.40;62.40;;;;;;5041292;28;20470;-77
2023/12/09 00:38:59;;;;;;;30.43;16.10;;;14.40;62.30;;;;;;5038908;28;20948;-76
2023/12/09 00:41:27;;;;;;;31.40;15.00;;;14.40;62.40;;;;;;5040702;28;20439;-75
2023/12/09 00:43:55;;;;;;;27.07;15.67;;;14.40;62.40;;;;;;5047639;28;20431;-76
2023/12/09 00:46:24;;;;;;;36.70;16.17;;;14.40;62.30;;;;;;5039564;28;20454;-75
2023/12/09 00:48:53;;;;;;;31.60;15.53;;;14.40;62.40;;;;;;5020425;28;20471;-76
2023/12/09 00:51:20;;;;;;;34.00;16.47;;;14.40;62.40;;;;;;5034318;28;20454;-76
2023/12/09 00:53:49;;;;;;;31.93;15.40;;;14.40;62.50;;;;;;5032286;28;20448;-76
2023/12/09 00:56:17;;;;;;;25.10;14.53;;;14.50;62.60;;;;;;5028001;28;20478;-76
2023/12/09 00:59:02;;;;;;;28.53;14.60;;;14.50;62.40;;;;;;5032377;28;20435;-76
2023/12/09 01:01:33;;;;;;;28.87;14.60;;;14.50;62.60;;;;;;5032288;28;20443;-75
2023/12/09 01:04:01;;;;;;;27.47;15.00;;;14.50;62.50;;;;;;5032462;28;20431;-76
2023/12/09 01:06:30;;;;;;;30.33;15.23;;;14.50;62.60;;;;;;5032309;28;20464;-75
2023/12/09 01:08:58;;;;;;;31.87;15.77;;;14.50;62.50;;;;;;5036035;28;20570;-75
2023/12/09 01:11:27;;;;;;;30.70;16.93;;;14.50;62.40;;;;;;5023753;28;20502;-75
2023/12/09 01:13:55;;;;;;;28.47;15.23;;;14.50;62.50;;;;;;5015923;28;20540;-75
2023/12/09 01:16:23;;;;;;;32.03;15.70;;;14.50;62.50;;;;;;5015627;28;20539;-76
2023/12/09 01:18:53;;;;;;;31.20;16.00;;;14.50;62.60;;;;;;5016158;28;21089;-76
2023/12/09 01:21:22;;;;;;;31.80;16.60;;;14.50;62.40;;;;;;5016247;28;20448;-76
2023/12/09 01:23:49;;;;;;;28.47;16.20;;;14.50;62.50;;;;;;5016089;28;20448;-75
2023/12/09 01:26:18;;;;;;;35.60;15.50;;;14.50;62.50;;;;;;5017967;28;20496;-76
2023/12/09 01:28:46;;;;;;;31.50;14.67;;;14.50;62.50;;;;;;5035827;28;20447;-76
2023/12/09 01:31:14;;;;;;;30.20;16.40;;;14.50;62.60;;;;;;5035428;28;20470;-76
2023/12/09 01:33:42;;;;;;;30.10;15.83;;;14.50;62.50;;;;;;5035386;28;20474;-76
2023/12/09 01:36:12;;;;;;;28.77;15.57;;;14.50;62.60;;;;;;5035546;28;20470;-75
2023/12/09 01:38:41;;;;;;;33.47;16.07;;;14.60;62.60;;;;;;5035086;28;20439;-77
2023/12/09 01:41:09;;;;;;;34.50;16.30;;;14.60;62.70;;;;;;5035053;28;20443;-76
2023/12/09 01:43:36;;;;;;;25.40;14.27;;;14.60;62.70;;;;;;5035537;28;20443;-76
2023/12/09 01:46:06;;;;;;;32.67;16.37;;;14.60;62.70;;;;;;5035220;28;20459;-75
2023/12/09 01:48:34;;;;;;;27.93;14.63;;;14.60;62.60;;;;;;5035039;28;20435;-76
2023/12/09 01:51:03;;;;;;;29.67;15.17;;;14.60;62.60;;;;;;5035239;28;20486;-75
2023/12/09 01:53:32;;;;;;;32.93;14.60;;;14.60;62.70;;;;;;5036417;28;20439;-76
2023/12/09 01:56:00;;;;;;;32.53;16.47;;;14.60;62.60;;;;;;5035344;28;20471;-76
2023/12/09 01:58:28;;;;;;;31.23;15.13;;;14.60;62.60;;;;;;5035267;28;20507;-76
2023/12/09 02:00:57;;;;;;;37.07;15.60;;;14.60;62.70;;;;;;5034703;28;20475;-76
2023/12/09 02:03:25;;;;;;;37.10;15.67;;;14.60;62.60;;;;;;5034910;28;20442;-77
2023/12/09 02:05:52;;;;;;;31.90;15.43;;;14.60;62.70;;;;;;5034743;28;20529;-76
2023/12/09 02:08:21;;;;;;;30.77;14.97;;;14.60;62.60;;;;;;5034929;28;20439;-77
2023/12/09 02:11:03;;;;;;;28.23;14.90;;;14.60;62.70;;;;;;5034667;28;20499;-76
2023/12/09 02:13:37;;;;;;;31.30;15.63;;;14.70;62.80;;;;;;5034327;28;20527;-76
2023/12/09 02:16:07;;;;;;;30.50;14.70;;;14.70;62.70;;;;;;5034306;28;20557;-76
2023/12/09 02:18:35;;;;;;;33.23;15.20;;;14.70;62.60;;;;;;5035067;28;20446;-77
2023/12/09 02:21:03;;;;;;;31.97;15.40;;;14.70;62.80;;;;;;5034803;28;20464;-76
2023/12/09 02:23:32;;;;;;;28.00;14.60;;;14.70;62.80;;;;;;5034446;28;20502;-76
2023/12/09 02:26:03;;;;;;;26.40;14.60;;;14.70;62.80;;;;;;5034639;28;20495;-76
2023/12/09 02:28:31;;;;;;;28.13;13.80;;;14.70;62.70;;;;;;5034396;28;20487;-76
2023/12/09 02:31:03;;;;;;;27.10;15.20;;;14.70;62.80;;;;;;5034131;28;20541;-76
2023/12/09 02:33:31;;;;;;;38.57;15.53;;;14.70;62.80;;;;;;5034478;28;20837;-76
2023/12/09 02:36:00;;;;;;;32.93;15.67;;;14.70;62.70;;;;;;5014768;28;20464;-76
2023/12/09 02:38:28;;;;;;;26.10;14.50;;;14.70;62.80;;;;;;5014376;28;20452;-75
2023/12/09 02:40:58;;;;;;;31.07;14.10;;;14.70;62.80;;;;;;5014288;28;20479;-77
2023/12/09 02:43:26;;;;;;;26.33;14.40;;;14.70;62.80;;;;;;5014407;28;20444;-75
2023/12/09 02:45:54;;;;;;;34.07;15.23;;;14.70;62.80;;;;;;5014121;28;20492;-76
2023/12/09 02:48:23;;;;;;;30.23;15.23;;;14.70;62.80;;;;;;5014417;28;20456;-76
2023/12/09 02:50:51;;;;;;;27.20;14.10;;;14.70;62.90;;;;;;5014053;28;20472;-76
2023/12/09 02:53:19;;;;;;;24.87;13.27;;;14.70;62.90;;;;;;5014097;28;20451;-76
2023/12/09 02:55:48;;;;;;;29.40;14.90;;;14.80;62.90;;;;;;5014278;28;20472;-76
2023/12/09 02:58:17;;;;;;;28.50;14.00;;;14.80;63.00;;;;;;5014129;28;20444;-76
2023/12/09 03:00:45;;;;;;;24.80;14.13;;;14.80;63.00;;;;;;5014439;28;20436;-76
2023/12/09 03:03:14;;;;;;;26.00;14.47;;;14.80;62.90;;;;;;5014235;28;20463;-76
2023/12/09 03:05:42;;;;;;;30.47;14.23;;;14.80;63.00;;;;;;5014340;28;20547;-75
2023/12/09 03:08:10;;;;;;;36.10;15.63;;;14.80;62.90;;;;;;5018323;28;20895;-76
2023/12/09 03:10:38;;;;;;;25.80;14.20;;;14.80;62.90;;;;;;5033166;28;20499;-75
2023/12/09 03:13:06;;;;;;;26.97;15.07;;;14.80;63.00;;;;;;5033490;28;20447;-76
2023/12/09 03:15:36;;;;;;;33.00;14.60;;;14.80;63.00;;;;;;5033473;28;20563;-76
2023/12/09 03:18:04;;;;;;;28.60;14.83;;;14.80;62.90;;;;;;5033335;28;20455;-76
2023/12/09 03:20:32;;;;;;;26.80;14.63;;;14.80;63.10;;;;;;5033505;28;20586;-76
2023/12/09 03:23:01;;;;;;;26.97;14.57;;;14.80;62.90;;;;;;5033208;28;20554;-77
2023/12/09 03:25:29;;;;;;;27.20;14.67;;;14.80;63.10;;;;;;5021521;28;20543;-77
2023/12/09 03:27:57;;;;;;;28.27;15.23;;;14.80;63.00;;;;;;5013692;28;20508;-76
2023/12/09 03:30:28;;;;;;;30.00;15.13;;;14.80;63.00;;;;;;5013420;28;20459;-76
2023/12/09 03:32:57;;;;;;;30.77;15.10;;;14.80;63.10;;;;;;5015866;28;20455;-75
2023/12/09 03:35:25;;;;;;;29.13;13.93;;;14.90;63.20;;;;;;5026969;28;20456;-75
2023/12/09 03:37:53;;;;;;;28.07;14.80;;;14.90;63.10;;;;;;5032336;28;20436;-76
2023/12/09 03:40:21;;;;;;;33.13;15.60;;;14.90;63.10;;;;;;5029606;28;20436;-75
2023/12/09 03:42:49;;;;;;;25.30;14.13;;;14.90;63.10;;;;;;5036471;28;20463;-76
2023/12/09 03:45:17;;;;;;;27.93;14.90;;;14.90;63.10;;;;;;5034110;28;20459;-77
2023/12/09 03:47:46;;;;;;;30.03;16.00;;;14.90;63.00;;;;;;5034009;28;20443;-76
2023/12/09 03:50:16;;;;;;;31.27;15.00;;;14.90;63.10;;;;;;5033162;28;20440;-76
2023/12/09 03:52:45;;;;;;;30.77;15.80;;;14.90;63.10;;;;;;5033427;28;20514;-76
2023/12/09 03:55:15;;;;;;;31.13;17.03;;;14.90;63.20;;;;;;5032996;28;20479;-74
2023/12/09 03:57:43;;;;;;;29.90;16.30;;;14.90;63.20;;;;;;5032931;28;20455;-76
2023/12/09 04:00:13;;;;;;;33.80;17.40;;;14.90;63.20;;;;;;5032203;28;20448;-76
2023/12/09 04:02:41;;;;;;;32.70;17.00;;;14.90;63.30;;;;;;5023791;28;20452;-76
2023/12/09 04:05:10;;;;;;;36.27;18.20;;;14.90;63.20;;;;;;5035818;28;20553;-75
2023/12/09 04:07:39;;;;;;;35.23;19.00;;;14.90;63.40;;;;;;5028932;28;20439;-75
2023/12/09 04:10:09;;;;;;;35.63;17.30;;;14.90;63.30;;;;;;5035833;28;20794;-75
2023/12/09 04:12:36;;;;;;;32.50;18.60;;;14.90;63.30;;;;;;5052350;28;20510;-75
2023/12/09 04:15:05;;;;;;;33.90;18.37;;;15.00;63.30;;;;;;5037079;28;20479;-75
2023/12/09 04:17:33;;;;;;;34.87;18.73;;;15.00;63.40;;;;;;5032252;28;20450;-75
2023/12/09 04:20:01;;;;;;;38.03;18.90;;;14.90;63.10;;;;;;5049142;28;20446;-75
2023/12/09 04:22:29;;;;;;;36.13;17.83;;;14.90;63.90;;;;;;5038683;28;20435;-75
2023/12/09 04:24:58;;;;;;;30.73;17.53;;;14.90;63.30;;;;;;5045179;28;20475;-74
2023/12/09 04:27:27;;;;;;;33.77;18.03;;;14.90;63.40;;;;;;5047917;28;20502;-75
2023/12/09 04:29:54;;;;;;;34.90;18.30;;;15.00;63.60;;;;;;5032806;28;20452;-75
2023/12/09 04:32:22;;;;;;;37.43;18.40;;;15.00;63.40;;;;;;5051225;28;20481;-74
2023/12/09 04:34:50;;;;;;;39.30;18.10;;;15.00;63.50;;;;;;5049940;28;20443;-74
2023/12/09 04:37:19;;;;;;;37.37;18.40;;;15.00;63.40;;;;;;5040255;28;20893;-76
2023/12/09 04:39:46;;;;;;;38.70;18.97;;;15.00;63.40;;;;;;5029428;28;20534;-76
2023/12/09 04:42:16;;;;;;;34.27;18.37;;;15.00;63.40;;;;;;5034263;28;20458;-76
2023/12/09 04:44:44;;;;;;;34.47;18.87;;;15.00;63.60;;;;;;5036460;28;20497;-75
2023/12/09 04:47:12;;;;;;;33.43;18.07;;;15.00;63.50;;;;;;5040051;28;20450;-76
2023/12/09 04:49:40;;;;;;;30.97;16.53;;;15.00;63.50;;;;;;5055135;28;20434;-76
2023/12/09 04:52:08;;;;;;;35.20;16.00;;;15.00;63.60;;;;;;5055205;28;20481;-75
2023/12/09 04:54:36;;;;;;;30.30;17.80;;;15.00;63.50;;;;;;5051389;28;20473;-74
2023/12/09 04:57:04;;;;;;;37.30;17.77;;;15.00;63.60;;;;;;5038005;28;20467;-76
2023/12/09 04:59:34;;;;;;;33.90;17.37;;;15.00;63.60;;;;;;5039233;28;20505;-75
2023/12/09 05:02:02;;;;;;;33.60;17.30;;;15.00;63.80;;;;;;5037992;28;20423;-75
2023/12/09 05:04:31;;;;;;;41.67;17.90;;;15.00;63.70;;;;;;5035326;28;20434;-76
2023/12/09 05:06:58;;;;;;;35.23;17.40;;;15.00;63.80;;;;;;5028807;28;20464;-76
2023/12/09 05:09:27;;;;;;;35.60;17.10;;;15.00;63.90;;;;;;5040105;28;20489;-76
2023/12/09 05:11:54;;;;;;;38.63;16.90;;;15.00;63.70;;;;;;5037855;28;20479;-75
2023/12/09 05:14:22;;;;;;;40.63;17.10;;;15.00;63.70;;;;;;5035737;28;20431;-75
2023/12/09 05:16:52;;;;;;;28.37;16.83;;;15.00;63.80;;;;;;5035547;28;20499;-75
2023/12/09 05:19:20;;;;;;;29.00;16.53;;;15.00;63.90;;;;;;5042767;28;20482;-77
2023/12/09 05:21:48;;;;;;;32.83;16.70;;;15.00;63.80;;;;;;5043642;28;20440;-77
2023/12/09 05:24:16;;;;;;;32.13;17.37;;;15.10;63.90;;;;;;5039249;28;20462;-76
2023/12/09 05:26:44;;;;;;;31.60;16.80;;;15.10;63.80;;;;;;5053997;28;20470;-76
2023/12/09 05:29:12;;;;;;;30.73;16.20;;;15.00;63.90;;;;;;5054186;28;20484;-76
2023/12/09 05:31:41;;;;;;;32.13;17.00;;;15.10;63.90;;;;;;5033611;28;20535;-76
2023/12/09 05:34:10;;;;;;;33.87;16.47;;;15.10;63.90;;;;;;5031695;28;20522;-77
2023/12/09 05:36:39;;;;;;;29.07;16.30;;;15.10;63.80;;;;;;5035320;28;20455;-76
2023/12/09 05:39:07;;;;;;;32.57;16.70;;;15.10;63.90;;;;;;5051829;28;20450;-76
2023/12/09 05:41:35;;;;;;;30.53;16.10;;;15.10;63.90;;;;;;5049375;28;20482;-77
2023/12/09 05:44:03;;;;;;;34.47;15.47;;;15.10;63.90;;;;;;5046286;28;20477;-76
2023/12/09 05:46:32;;;;;;;27.17;15.40;;;15.10;64.20;;;;;;5042368;28;20486;-76
2023/12/09 05:48:59;;;;;;;30.83;16.60;;;15.10;64.00;;;;;;5027863;28;20445;-76
2023/12/09 05:51:29;;;;;;;28.50;14.90;;;15.10;64.10;;;;;;5040691;28;20434;-77
2023/12/09 05:53:57;;;;;;;33.27;16.43;;;15.10;64.00;;;;;;5050598;28;20531;-76
2023/12/09 05:56:25;;;;;;;32.87;15.23;;;15.10;64.20;;;;;;5054220;28;20459;-75
2023/12/09 05:58:53;;;;;;;30.90;15.63;;;15.10;63.90;;;;;;5047791;28;20534;-76
2023/12/09 06:01:21;;;;;;;32.47;16.00;;;15.10;64.20;;;;;;5054540;28;20474;-75
2023/12/09 06:03:49;;;;;;;30.13;15.80;;;15.10;63.90;;;;;;5038355;28;20446;-75
2023/12/09 06:06:18;;;;;;;27.87;14.70;;;15.10;63.90;;;;;;5048708;28;20505;-75
2023/12/09 06:08:48;;;;;;;25.07;14.83;;;15.10;63.90;;;;;;5038358;28;20455;-76
2023/12/09 06:11:16;;;;;;;29.60;15.67;;;15.10;63.90;;;;;;5049393;28;20531;-75
2023/12/09 06:13:44;;;;;;;29.67;15.77;;;15.10;64.00;;;;;;5034604;28;20519;-75
2023/12/09 06:16:17;;;;;;;27.27;14.60;;;15.20;64.10;;;;;;5017397;28;20538;-75
2023/12/09 06:18:46;;;;;;;25.67;14.20;;;15.20;64.10;;;;;;5031356;28;20462;-75
2023/12/09 06:21:20;;;;;;;26.77;14.27;;;15.10;64.10;;;;;;5035463;28;20494;-75
2023/12/09 06:23:50;;;;;;;28.30;13.90;;;15.20;64.30;;;;;;5041475;28;20496;-75
2023/12/09 06:26:18;;;;;;;30.87;14.53;;;15.10;63.90;;;;;;5041099;28;20467;-75
2023/12/09 06:28:46;;;;;;;28.90;14.00;;;15.20;64.10;;;;;;5028505;28;20893;-75
2023/12/09 06:31:14;;;;;;;27.87;14.30;;;15.20;64.10;;;;;;5042910;28;20853;-75
2023/12/09 06:33:42;;;;;;;24.00;13.20;;;15.20;64.10;;;;;;5048854;28;20545;-76
2023/12/09 06:36:11;;;;;;;24.20;14.20;;;15.20;64.00;;;;;;5045875;28;20478;-76
2023/12/09 06:38:39;;;;;;;20.90;13.10;;;15.20;64.10;;;;;;5037046;28;20448;-76
2023/12/09 06:41:09;;;;;;;27.03;13.80;;;15.20;64.20;;;;;;5042805;28;20488;-75
2023/12/09 06:43:37;;;;;;;27.03;13.40;;;15.20;64.10;;;;;;5039525;28;20567;-75
2023/12/09 06:46:06;;;;;;;24.47;13.00;;;15.20;64.10;;;;;;5034339;28;20506;-74
2023/12/09 06:48:36;;;;;;;25.17;13.30;;;15.20;64.20;;;;;;5055434;28;20450;-75
2023/12/09 06:51:07;;;;;;;26.33;13.10;;;15.20;64.30;;;;;;5052810;28;20443;-75
2023/12/09 06:53:38;;;;;;;23.37;12.83;;;15.20;64.30;;;;;;5050419;28;20443;-76
2023/12/09 06:56:09;;;;;;;29.33;14.47;;;15.30;64.30;;;;;;5050341;28;21068;-76
2023/12/09 06:58:40;;;;;;;22.43;12.27;;;15.20;64.20;;;;;;5046633;28;20490;-76
2023/12/09 07:01:08;;;;;;;29.17;12.97;;;15.30;64.20;;;;;;5033697;28;20459;-76
2023/12/09 07:03:37;;;;;;;24.87;12.50;;;15.30;64.10;;;;;;5021047;28;20534;-75
2023/12/09 07:06:06;;;;;;;24.20;12.60;;;15.30;64.30;;;;;;5013335;28;20472;-76
2023/12/09 07:08:34;;;;;;;28.33;12.50;;;15.30;64.30;;;;;;5013889;28;20440;-76
2023/12/09 07:11:02;;;;;;;22.53;12.77;;;15.30;64.20;;;;;;5013960;28;20483;-76
2023/12/09 07:13:32;;;;;;;20.23;11.53;;;15.30;64.10;;;;;;5015168;28;20523;-76
2023/12/09 07:16:00;;;;;;;21.00;11.33;;;15.30;64.20;;;;;;5014029;28;20472;-77
2023/12/09 07:18:28;;;;;;;26.17;12.40;;;15.30;64.00;;;;;;5014131;28;20508;-76
2023/12/09 07:20:56;;;;;;;20.43;11.37;;;15.30;64.00;;;;;;5013714;28;20447;-76
2023/12/09 07:23:24;;;;;;;18.40;11.10;;;15.30;64.00;;;;;;5013686;28;20480;-77
2023/12/09 07:25:52;;;;;;;19.63;11.00;;;15.40;64.20;;;;;;5013866;28;20468;-75
2023/12/09 07:28:20;;;;;;;20.53;10.47;;;15.30;64.00;;;;;;5013460;28;20523;-76
2023/12/09 07:30:49;;;;;;;25.03;11.43;;;15.40;64.10;;;;;;5013395;28;20519;-77
2023/12/09 07:33:17;;;;;;;17.20;10.80;;;15.40;64.10;;;;;;5013624;28;20527;-76
2023/12/09 07:35:46;;;;;;;19.47;10.30;;;15.40;64.20;;;;;;5013307;28;20465;-76
2023/12/09 07:38:14;;;;;;;17.37;10.90;;;15.40;64.20;;;;;;5013350;28;20502;-76
2023/12/09 07:40:42;;;;;;;18.60;10.13;;;15.40;64.30;;;;;;5013230;28;20546;-76
2023/12/09 07:43:11;;;;;;;21.10;10.53;;;15.40;64.00;;;;;;5013297;28;20468;-76
2023/12/09 07:45:39;;;;;;;20.70;10.70;;;15.40;64.10;;;;;;5013223;28;20506;-76
2023/12/09 07:48:08;;;;;;;16.23;9.40;;;15.40;64.10;;;;;;5013267;28;20483;-76
2023/12/09 07:50:37;;;;;;;17.07;10.30;;;15.50;64.10;;;;;;5013544;28;20456;-76
2023/12/09 07:53:04;;;;;;;18.33;10.10;;;15.50;64.10;;;;;;5013259;28;20468;-76
2023/12/09 07:55:32;;;;;;;14.73;9.30;;;15.50;64.20;;;;;;5012966;28;20496;-76
2023/12/09 07:58:00;;;;;;;19.70;9.23;;;15.50;64.20;;;;;;5013085;28;20440;-77
2023/12/09 08:00:28;;;;;;;18.63;9.40;;;15.50;64.20;;;;;;5012749;28;20475;-77
2023/12/09 08:02:56;;;;;;;16.73;9.60;;;15.50;64.10;;;;;;5013131;28;20837;-76
2023/12/09 08:05:26;;;;;;;19.30;9.00;;;15.50;64.10;;;;;;5012437;28;20510;-76
2023/12/09 08:07:54;;;;;;;19.17;9.83;;;15.50;64.00;;;;;;5012818;28;20459;-76
2023/12/09 08:10:22;;;;;;;16.00;9.20;;;15.50;64.00;;;;;;5012612;28;20873;-76
2023/12/09 08:12:50;;;;;;;17.93;10.13;;;15.50;64.10;;;;;;5013031;28;20517;-76
2023/12/09 08:15:18;;;;;;;19.00;9.67;;;15.50;64.20;;;;;;5012634;28;20508;-76
2023/12/09 08:17:46;;;;;;;18.50;9.70;;;15.60;64.20;;;;;;5012235;28;20442;-76
2023/12/09 08:20:14;;;;;;;15.97;9.43;;;15.50;63.90;;;;;;5023846;28;20443;-76
2023/12/09 08:22:43;;;;;;;19.80;9.90;;;15.50;63.90;;;;;;5031932;28;20471;-76
2023/12/09 08:25:11;;;;;;;14.77;9.80;;;15.50;64.00;;;;;;5022848;28;20491;-76
2023/12/09 08:27:39;;;;;;;16.90;9.60;;;15.60;64.20;;;;;;5032607;28;20427;-76
2023/12/09 08:30:10;;;;;;;18.03;10.10;;;15.60;64.10;;;;;;5023393;28;20432;-76
2023/12/09 08:32:39;;;;;;;21.83;10.50;;;15.60;64.00;;;;;;5012719;28;20443;-76
2023/12/09 08:35:08;;;;;;;19.70;9.90;;;15.60;64.10;;;;;;5028523;28;20447;-76
2023/12/09 08:37:37;;;;;;;17.77;9.77;;;15.60;64.10;;;;;;5021759;28;20491;-76
2023/12/09 08:40:10;;;;;;;19.93;9.57;;;15.60;63.90;;;;;;5012420;28;20479;-76
2023/12/09 08:42:39;;;;;;;22.13;10.10;;;15.60;63.90;;;;;;5012344;28;20412;-76
2023/12/09 08:45:09;;;;;;;23.00;9.60;;;15.70;64.60;;;;;;5012432;28;20507;-76
2023/12/09 08:47:37;;;;;;;19.87;9.30;;;15.70;63.90;;;;;;5012785;28;20449;-75
2023/12/09 08:50:10;;;;;;;18.17;9.70;;;15.70;63.70;;;;;;5012896;28;20417;-76
2023/12/09 08:52:51;;;;;;;14.90;9.27;;;15.70;64.00;;;;;;5015021;28;20417;-75
2023/12/09 08:55:21;;;;;;;17.27;8.73;;;15.80;64.70;;;;;;5032120;28;20478;-75
2023/12/09 08:57:51;;;;;;;17.13;8.80;;;15.80;64.00;;;;;;5032325;28;20442;-76
2023/12/09 09:00:20;;;;;;;18.67;9.80;;;15.90;63.80;;;;;;5032436;28;20503;-77
2023/12/09 09:02:50;;;;;;;18.67;9.10;;;15.90;63.90;;;;;;5032676;28;20542;-77
2023/12/09 09:05:19;;;;;;;14.30;8.47;;;16.00;63.90;;;;;;5021482;28;20555;-76
2023/12/09 09:07:47;;;;;;;17.20;8.77;;;16.10;63.80;;;;;;5013077;28;20468;-77
2023/12/09 09:10:15;;;;;;;17.43;8.60;;;16.10;63.60;;;;;;5013243;28;20456;-77
2023/12/09 09:12:46;;;;;;;15.83;8.40;;;16.20;63.60;;;;;;5012618;28;20502;-78
2023/12/09 09:15:15;;;;;;;15.47;8.30;;;16.20;63.40;;;;;;5012410;28;20522;-78
2023/12/09 09:17:44;;;;;;;22.73;8.70;;;16.30;63.40;;;;;;5012344;28;20474;-77
2023/12/09 09:20:12;;;;;;;15.57;8.57;;;16.30;63.60;;;;;;5013300;28;20444;-77
2023/12/09 09:22:41;;;;;;;15.57;7.83;;;16.40;63.40;;;;;;5012722;28;20503;-77
2023/12/09 09:25:13;;;;;;;16.77;7.90;;;16.50;63.30;;;;;;5012210;28;20534;-77
2023/12/09 09:27:41;;;;;;;16.57;8.20;;;16.60;63.40;;;;;;5013069;28;20510;-77
2023/12/09 09:30:13;;;;;;;15.83;7.30;;;16.60;63.20;;;;;;5018749;28;20455;-77
2023/12/09 09:32:41;;;;;;;14.00;7.43;;;16.70;63.20;;;;;;5017396;28;20447;-76
2023/12/09 09:35:10;;;;;;;13.03;6.93;;;16.70;63.00;;;;;;5027895;28;20459;-76
2023/12/09 09:37:38;;;;;;;16.03;6.97;;;16.80;63.10;;;;;;5035268;28;20482;-76
2023/12/09 09:40:07;;;;;;;13.20;7.27;;;16.70;62.80;;;;;;5035775;28;20533;-76
2023/12/09 09:42:38;;;;;;;11.37;7.17;;;16.70;62.70;;;;;;5034975;28;20470;-76
2023/12/09 09:45:11;;;;;;;12.73;6.90;;;16.70;62.70;;;;;;5033188;28;20514;-76
2023/12/09 09:47:40;;;;;;;13.50;6.60;;;16.70;62.90;;;;;;5029223;28;20453;-75
2023/12/09 09:50:10;;;;;;;17.20;6.40;;;16.70;62.80;;;;;;5026789;28;20439;-76
2023/12/09 09:52:40;;;;;;;11.30;5.87;;;16.70;62.80;;;;;;5025705;28;20431;-76
2023/12/09 09:55:08;;;;;;;11.10;5.83;;;16.70;63.00;;;;;;5027975;28;20444;-75
2023/12/09 09:57:37;;;;;;;12.37;5.87;;;16.80;63.20;;;;;;5019861;28;20465;-75
2023/12/09 10:00:14;;;;;;;14.37;6.67;;;16.80;63.00;;;;;;5024003;28;20429;-75
2023/12/09 10:02:44;;;;;;;10.83;5.50;;;16.80;62.90;;;;;;5026098;28;20447;-76
2023/12/09 10:05:12;;;;;;;12.03;6.07;;;16.90;63.10;;;;;;5040052;28;20483;-76
2023/12/09 10:07:40;;;;;;;11.27;5.83;;;17.00;63.10;;;;;;5033321;28;20440;-76
2023/12/09 10:10:09;;;;;;;13.80;5.43;;;17.20;63.30;;;;;;5036954;28;20436;-77
2023/12/09 10:12:37;;;;;;;12.67;5.13;;;17.30;63.00;;;;;;5026608;28;20543;-75
2023/12/09 10:15:06;;;;;;;10.23;5.07;;;17.40;63.10;;;;;;5018081;28;20467;-76
2023/12/09 10:17:34;;;;;;;12.80;5.73;;;17.50;62.90;;;;;;5017970;28;20448;-75
2023/12/09 10:20:06;;;;;;;14.53;5.57;;;17.70;63.00;;;;;;5021573;28;20444;-77
2023/12/09 10:22:34;;;;;;;9.97;4.70;;;17.80;63.10;;;;;;5026236;28;20446;-76
2023/12/09 10:25:02;;;;;;;11.90;5.00;;;17.90;63.10;;;;;;5019294;28;20560;-76
2023/12/09 10:27:30;;;;;;;8.67;4.67;;;18.10;63.20;;;;;;5032650;28;20443;-76
2023/12/09 10:29:58;;;;;;;10.87;5.00;;;18.20;63.10;;;;;;5034107;28;20444;-76
2023/12/09 10:32:27;;;;;;;12.47;4.50;;;18.30;63.00;;;;;;5034859;28;20458;-75
2023/12/09 10:34:56;;;;;;;12.70;4.20;;;18.50;63.20;;;;;;5022672;28;20500;-75
2023/12/09 10:37:26;;;;;;;16.17;4.67;;;18.60;63.00;;;;;;5022291;28;20448;-76
2023/12/09 10:39:54;;;;;;;8.83;4.37;;;18.80;62.90;;;;;;5021850;28;20507;-76
2023/12/09 10:42:23;;;;;;;7.40;3.97;;;18.90;62.60;;;;;;5023085;28;20531;-76
2023/12/09 10:44:51;;;;;;;10.90;4.60;;;19.00;62.70;;;;;;5023978;28;20487;-76
2023/12/09 10:47:20;;;;;;;14.23;4.00;;;19.00;62.30;;;;;;5022429;28;20444;-76
2023/12/09 10:49:48;;;;;;;13.87;4.80;;;19.10;62.20;;;;;;5021325;28;20432;-76
2023/12/09 10:52:16;;;;;;;10.17;3.57;;;19.10;61.80;;;;;;5022721;28;20456;-76
2023/12/09 10:54:45;;;;;;;11.20;4.00;;;19.10;61.70;;;;;;5031022;28;20534;-76
2023/12/09 10:57:14;;;;;;;7.50;3.80;;;19.10;61.50;;;;;;5026316;28;20463;-76
2023/12/09 10:59:42;;;;;;;11.20;4.90;;;19.10;61.50;;;;;;5026170;28;20455;-78
2023/12/09 11:02:10;;;;;;;10.93;5.10;;;16.10;56.50;;;;;;5025454;28;20475;-79
2023/12/09 11:04:38;;;;;;;11.03;4.40;;;13.60;64.00;;;;;;5027520;28;20551;-78
2023/12/09 11:07:07;;;;;;;16.73;5.10;;;12.70;66.80;;;;;;5025965;28;20551;-76
2023/12/09 11:09:36;;;;;;;10.90;4.73;;;11.70;70.30;;;;;;5023420;28;20515;-79
2023/12/09 11:12:06;;;;;;;10.77;4.80;;;11.30;72.90;;;;;;5023875;28;20449;-78
2023/12/09 11:14:34;;;;;;;9.47;4.30;;;11.10;74.80;;;;;;5027326;28;20431;-76
2023/12/09 11:17:02;;;;;;;9.27;4.07;;;11.10;82.80;;;;;;5031784;28;20463;-77
2023/12/09 11:19:30;;;;;;;10.70;4.10;;;12.50;84.50;;;;;;5034080;28;20440;-78
2023/12/09 11:21:58;;;;;;;15.70;3.60;;;13.60;79.20;;;;;;5045273;28;20435;-77
2023/12/09 11:24:29;;;;;;;11.37;3.80;;;14.40;74.40;;;;;;5039880;28;20463;-76
2023/12/09 11:26:58;;;;;;;10.13;3.70;;;15.10;71.10;;;;;;5046378;28;20475;-76
2023/12/09 11:29:27;;;;;;;7.00;2.93;;;15.70;68.10;;;;;;5027691;28;20490;-76
2023/12/09 11:31:55;;;;;;;7.97;3.60;;;16.10;66.20;;;;;;5031385;28;20521;-77
2023/12/09 11:34:24;;;;;;;4.23;2.90;;;16.40;64.60;;;;;;5031863;28;20535;-76
2023/12/09 11:36:53;;;;;;;6.80;3.30;;;16.70;63.20;;;;;;5043161;28;20475;-76
2023/12/09 11:39:21;;;;;;;5.57;2.80;;;16.90;62.40;;;;;;5027482;28;20538;-77
2023/12/09 11:41:52;;;;;;;5.73;3.20;;;17.10;61.80;;;;;;5034568;28;20439;-76
2023/12/09 11:44:20;;;;;;;6.20;2.93;;;17.20;60.90;;;;;;5016482;28;20437;-76
2023/12/09 11:46:50;;;;;;;4.87;2.83;;;17.30;60.60;;;;;;5037545;28;20463;-76
2023/12/09 11:49:17;;;;;;;6.90;3.50;;;17.40;60.10;;;;;;5035506;28;20443;-77
2023/12/09 11:51:45;;;;;;;4.30;2.87;;;17.50;59.90;;;;;;5035937;28;20518;-77
2023/12/09 11:54:13;;;;;;;6.60;2.93;;;17.60;59.60;;;;;;5032663;28;20538;-77
2023/12/09 11:56:41;;;;;;;6.20;2.83;;;17.70;59.40;;;;;;5044221;28;20473;-76
2023/12/09 11:59:09;;;;;;;6.50;3.07;;;17.80;59.10;;;;;;5040886;28;20530;-75
2023/12/09 12:01:37;;;;;;;5.90;2.80;;;17.80;58.60;;;;;;5036447;28;20530;-76
2023/12/09 12:04:07;;;;;;;5.80;2.90;;;17.80;58.80;;;;;;5045119;28;20434;-76
2023/12/09 12:06:36;;;;;;;5.27;2.70;;;17.80;58.70;;;;;;5052262;28;20510;-75
2023/12/09 12:09:04;;;;;;;6.63;2.80;;;17.70;58.60;;;;;;5032233;28;20451;-76
2023/12/09 12:11:33;;;;;;;13.07;3.70;;;17.70;58.80;;;;;;5030467;28;20799;-76
2023/12/09 12:14:01;;;;;;;27.13;4.30;;;18.30;65.30;;;;;;5035886;28;20463;-79
2023/12/09 12:16:29;;;;;;;15.33;4.33;;;18.60;65.80;;;;;;5047561;22;20479;-78
2023/12/09 12:18:57;;;;;;;7.60;4.07;;;18.80;66.10;;;;;;5049966;28;20533;-78
2023/12/09 12:21:26;;;;;;;24.93;4.30;;;19.00;65.90;;;;;;5044827;28;20443;-78
2023/12/09 12:23:55;;;;;;;14.37;4.53;;;19.30;64.50;;;;;;5044045;28;20434;-78
2023/12/09 12:26:23;;;;;;;11.10;3.80;;;19.30;65.00;;;;;;5040799;28;20494;-77
2023/12/09 12:28:53;;;;;;;18.27;3.90;;;19.30;65.60;;;;;;5022217;28;20459;-77
2023/12/09 12:31:21;;;;;;;14.43;4.30;;;19.30;66.10;;;;;;5027946;28;20501;-77
2023/12/09 12:33:49;;;;;;;16.03;4.13;;;19.30;66.60;;;;;;5032241;28;20431;-78
2023/12/09 12:36:18;;;;;;;10.73;4.00;;;19.30;66.80;;;;;;5023035;28;20432;-77
2023/12/09 12:38:50;;;;;;;9.73;3.47;;;19.30;66.80;;;;;;5024743;28;20459;-79